Time;durP1;ratioP1;P1;durP2;ratioP2;P2;SDS_P1;SDS_P2;PMS_P1;PMS_P2;Temp;Humidity;BMP_temperature;BMP_pressure;BME280_temperature;BME280_humidity;BME280_pressure;Samples;Min_cycle;Max_cycle;Signal;HPM_P1;HPM_P2
2021/08/05 00:01:05;;;;;;;;;9.25;7.00;;;;;;;;4609922;30;45709;-79
2021/08/05 00:03:30;;;;;;;;;6.75;6.00;;;;;;;;4616961;30;46111;-79
2021/08/05 00:05:56;;;;;;;;;7.00;6.75;;;;;;;;4621200;30;45522;-78
2021/08/05 00:08:23;;;;;;;;;7.00;6.25;;;;;;;;4620932;30;45576;-80
2021/08/05 00:11:09;;;;;;;;;7.00;6.00;;;;;;;;4632753;30;45643;-79
2021/08/05 00:13:34;;;;;;;;;7.00;7.00;;;;;;;;4653994;30;46313;-79
2021/08/05 00:15:59;;;;;;;;;7.00;7.00;;;;;;;;4673706;30;45538;-79
2021/08/05 00:18:25;;;;;;;;;10.00;7.75;;;;;;;;4668761;30;45495;-79
2021/08/05 00:20:50;;;;;;;;;9.00;7.50;;;;;;;;4674454;30;46365;-79
2021/08/05 00:23:34;;;;;;;;;8.00;6.50;;;;;;;;4667486;30;45525;-79
2021/08/05 00:26:19;;;;;;;;;10.00;7.75;;;;;;;;4668190;30;45625;-78
2021/08/05 00:28:45;;;;;;;;;8.25;7.00;;;;;;;;4667421;30;45555;-78
2021/08/05 00:34:36;;;;;;;;;9.00;7.50;;;;;;;;4648855;30;45732;-78
2021/08/05 00:37:02;;;;;;;;;8.00;7.00;;;;;;;;4655866;30;45733;-79
2021/08/05 00:39:27;;;;;;;;;10.50;9.25;;;;;;;;4653270;30;46084;-80
2021/08/05 00:42:13;;;;;;;;;8.25;8.25;;;;;;;;4656685;30;55169;-78
2021/08/05 00:45:04;;;;;;;;;8.25;7.50;;;;;;;;4754428;24;45698;-78
2021/08/05 00:48:12;;;;;;;;;;;;;;;;;;;;;
2021/08/05 00:50:57;;;;;;;;;8.75;6.00;;;;;;;;4619656;30;68985;-78
2021/08/05 00:53:24;;;;;;;;;8.25;7.50;;;;;;;;4698918;24;46592;-81
2021/08/05 00:55:52;;;;;;;;;13.25;8.00;;;;;;;;4668664;30;46425;-82
2021/08/05 00:58:35;;;;;;;;;8.00;7.25;;;;;;;;4678493;30;45604;-81
2021/08/05 01:01:22;;;;;;;;;13.75;7.75;;;;;;;;4676813;30;45713;-82
2021/08/05 01:06:31;;;;;;;;;9.25;8.25;;;;;;;;4486344;28;45930;-82
2021/08/05 01:09:03;;;;;;;;;11.00;5.75;;;;;;;;4629325;30;45629;-82
2021/08/05 01:12:36;;;;;;;;;10.25;8.25;;;;;;;;4643342;30;45468;-84
2021/08/05 01:14:45;;;;;;;;;7.75;6.25;;;;;;;;4634544;30;45576;-82
2021/08/05 01:17:19;;;;;;;;;9.00;7.75;;;;;;;;4642485;30;48320;-82
2021/08/05 01:20:04;;;;;;;;;11.00;9.75;;;;;;;;4640671;30;45952;-81
2021/08/05 01:22:29;;;;;;;;;8.75;8.00;;;;;;;;4627379;30;46009;-82
2021/08/05 01:25:09;;;;;;;;;8.75;8.75;;;;;;;;4645970;30;45501;-82
2021/08/05 01:27:41;;;;;;;;;8.50;7.25;;;;;;;;4642751;30;46129;-81
2021/08/05 01:30:10;;;;;;;;;9.00;7.50;;;;;;;;4640750;30;46197;-83
2021/08/05 01:32:55;;;;;;;;;10.25;8.50;;;;;;;;4644716;30;45628;-82
2021/08/05 01:35:21;;;;;;;;;10.50;10.50;;;;;;;;4630368;30;45634;-82
2021/08/05 01:37:47;;;;;;;;;8.00;7.75;;;;;;;;4657126;30;48260;-81
2021/08/05 01:40:15;;;;;;;;;6.00;6.00;;;;;;;;4643116;30;54934;-80
2021/08/05 01:43:22;;;;;;;;;9.25;7.75;;;;;;;;4625402;30;45689;-81
2021/08/05 01:46:21;;;;;;;;;9.75;8.75;;;;;;;;4599807;30;46595;-81
2021/08/05 01:48:48;;;;;;;;;13.00;8.25;;;;;;;;4550103;31;45754;-81
2021/08/05 01:54:37;;;;;;;;;8.75;7.75;;;;;;;;5167105;24;46402;-80
2021/08/05 01:57:02;;;;;;;;;11.00;8.75;;;;;;;;4733932;24;45716;-91
2021/08/05 01:59:33;;;;;;;;;10.25;8.00;;;;;;;;4704345;24;47095;-80
2021/08/05 02:02:00;;;;;;;;;10.00;9.00;;;;;;;;4655886;30;45607;-81
2021/08/05 02:04:44;;;;;;;;;11.25;10.00;;;;;;;;4659699;30;45588;-80
2021/08/05 02:10:13;;;;;;;;;7.75;7.00;;;;;;;;4663045;30;45965;-79
2021/08/05 02:12:42;;;;;;;;;8.25;8.00;;;;;;;;4617550;30;46200;-80
2021/08/05 02:15:08;;;;;;;;;10.50;7.75;;;;;;;;4620754;30;45502;-81
2021/08/05 02:18:00;;;;;;;;;11.75;8.25;;;;;;;;4617995;30;45567;-82
2021/08/05 02:20:26;;;;;;;;;10.50;7.50;;;;;;;;4614291;30;45561;-82
2021/08/05 02:22:51;;;;;;;;;9.00;8.00;;;;;;;;4613231;30;45653;-82
2021/08/05 02:25:17;;;;;;;;;10.00;7.25;;;;;;;;4604743;30;46550;-81
2021/08/05 02:27:43;;;;;;;;;8.75;7.50;;;;;;;;4616325;30;45594;-82
2021/08/05 02:30:23;;;;;;;;;10.00;9.00;;;;;;;;4615632;30;46218;-82
2021/08/05 02:35:25;;;;;;;;;12.75;8.50;;;;;;;;4500205;28;45805;-82
2021/08/05 02:41:17;;;;;;;;;11.75;8.75;;;;;;;;4671986;30;45490;-82
2021/08/05 02:43:53;;;;;;;;;7.00;7.00;;;;;;;;4669102;30;46414;-82
2021/08/05 02:46:21;;;;;;;;;8.75;8.25;;;;;;;;4691311;30;45577;-81
2021/08/05 02:48:53;;;;;;;;;8.25;8.25;;;;;;;;4686578;30;45668;-81
2021/08/05 02:54:33;;;;;;;;;12.50;9.00;;;;;;;;4565769;30;45670;-80
2021/08/05 02:57:28;;;;;;;;;10.75;8.50;;;;;;;;4571280;30;45603;-81
2021/08/05 02:59:53;;;;;;;;;9.50;8.75;;;;;;;;4570186;30;46443;-82
2021/08/05 03:07:17;;;;;;;;;10.00;9.00;;;;;;;;4688088;30;46254;-81
2021/08/05 03:09:43;;;;;;;;;13.75;7.25;;;;;;;;4681179;30;45583;-82
2021/08/05 03:12:28;;;;;;;;;7.50;7.50;;;;;;;;4670866;30;50113;-81
2021/08/05 03:14:53;;;;;;;;;7.75;7.75;;;;;;;;4687466;30;45657;-82
2021/08/05 03:17:19;;;;;;;;;11.00;9.00;;;;;;;;4687073;30;45587;-81
2021/08/05 03:19:44;;;;;;;;;10.25;8.00;;;;;;;;4686557;30;45453;-81
2021/08/05 03:22:16;;;;;;;;;9.25;8.00;;;;;;;;4690737;30;46145;-81
2021/08/05 03:25:26;;;;;;;;;11.00;9.75;;;;;;;;4674465;30;45706;-80
2021/08/05 03:27:50;;;;;;;;;12.00;10.25;;;;;;;;4687890;30;45502;-81
2021/08/05 03:30:16;;;;;;;;;12.00;11.75;;;;;;;;4687535;30;45757;-81
2021/08/05 03:32:46;;;;;;;;;17.50;12.75;;;;;;;;4692068;30;46883;-83
2021/08/05 03:35:27;;;;;;;;;13.00;10.00;;;;;;;;4670270;30;45918;-81
2021/08/05 03:37:52;;;;;;;;;17.25;11.50;;;;;;;;4686437;30;45665;-81
2021/08/05 03:40:47;;;;;;;;;15.00;11.00;;;;;;;;4673435;30;45535;-81
2021/08/05 03:43:12;;;;;;;;;10.50;9.75;;;;;;;;4686474;30;45661;-82
2021/08/05 03:45:39;;;;;;;;;11.50;10.75;;;;;;;;4685512;30;45641;-80
2021/08/05 03:48:05;;;;;;;;;15.25;11.75;;;;;;;;4688160;30;45537;-80
2021/08/05 03:50:30;;;;;;;;;11.00;9.25;;;;;;;;4670814;30;45459;-81
2021/08/05 03:53:16;;;;;;;;;11.75;10.50;;;;;;;;4666505;30;48270;-78
2021/08/05 03:56:05;;;;;;;;;13.25;9.75;;;;;;;;4682355;30;46348;-79
2021/08/05 03:58:30;;;;;;;;;10.00;7.00;;;;;;;;4689359;30;45518;-79
2021/08/05 04:00:55;;;;;;;;;11.00;8.75;;;;;;;;4684959;30;45650;-79
2021/08/05 04:03:20;;;;;;;;;10.50;7.50;;;;;;;;4687144;30;46508;-79
2021/08/05 04:06:01;;;;;;;;;11.50;7.00;;;;;;;;4685330;30;45556;-78
2021/08/05 04:08:26;;;;;;;;;9.75;7.75;;;;;;;;4691359;30;45678;-79
2021/08/05 04:13:59;;;;;;;;;8.25;6.50;;;;;;;;4628939;30;50572;-79
2021/08/05 04:16:44;;;;;;;;;11.00;7.75;;;;;;;;4687554;30;45455;-78
2021/08/05 04:19:27;;;;;;;;;10.00;5.00;;;;;;;;4690353;30;45538;-78
2021/08/05 04:21:53;;;;;;;;;10.00;7.00;;;;;;;;4687026;30;45400;-79
2021/08/05 04:24:21;;;;;;;;;9.25;7.25;;;;;;;;4683681;30;46441;-79
2021/08/05 04:26:56;;;;;;;;;5.25;5.25;;;;;;;;4691965;30;45519;-79
2021/08/05 04:29:50;;;;;;;;;6.00;6.00;;;;;;;;4664283;30;45496;-80
2021/08/05 04:32:18;;;;;;;;;8.00;6.25;;;;;;;;4689210;30;45484;-78
2021/08/05 04:34:53;;;;;;;;;6.75;5.00;;;;;;;;4691730;30;46160;-82
2021/08/05 04:37:20;;;;;;;;;6.50;6.00;;;;;;;;4671150;30;46145;-82
2021/08/05 04:39:45;;;;;;;;;10.00;5.75;;;;;;;;4686604;30;45574;-79
2021/08/05 04:42:10;;;;;;;;;8.00;7.00;;;;;;;;4670286;30;45585;-78
2021/08/05 04:45:16;;;;;;;;;7.50;7.50;;;;;;;;4690960;30;46647;-79
2021/08/05 04:48:08;;;;;;;;;8.25;7.00;;;;;;;;4601667;30;45706;-77
2021/08/05 04:53:45;;;;;;;;;6.00;6.00;;;;;;;;4595486;30;45552;-79
2021/08/05 04:56:13;;;;;;;;;10.25;7.00;;;;;;;;4602759;30;45583;-81
2021/08/05 04:58:38;;;;;;;;;9.25;7.25;;;;;;;;4622115;30;45676;-78
2021/08/05 05:01:12;;;;;;;;;9.00;7.00;;;;;;;;4690156;30;45726;-78
2021/08/05 05:03:45;;;;;;;;;10.25;7.50;;;;;;;;4685700;30;45652;-79
2021/08/05 05:06:10;;;;;;;;;12.50;8.00;;;;;;;;4687877;30;46426;-80
2021/08/05 05:11:10;;;;;;;;;9.50;8.00;;;;;;;;4670916;25;45534;-79
2021/08/05 05:13:41;;;;;;;;;7.75;7.00;;;;;;;;4681884;30;45667;-79
2021/08/05 05:16:24;;;;;;;;;11.25;7.50;;;;;;;;4645287;30;47373;-83
2021/08/05 05:18:49;;;;;;;;;7.50;6.50;;;;;;;;4677350;30;45548;-79
2021/08/05 05:24:16;;;;;;;;;8.50;7.50;;;;;;;;4650441;30;45888;-79
2021/08/05 05:26:41;;;;;;;;;11.00;8.00;;;;;;;;4682225;30;45543;-79
2021/08/05 05:29:09;;;;;;;;;10.00;7.25;;;;;;;;4659086;30;45555;-79
2021/08/05 05:31:35;;;;;;;;;8.50;7.25;;;;;;;;4674113;30;45484;-79
2021/08/05 05:34:00;;;;;;;;;8.25;7.00;;;;;;;;4658253;30;45527;-79
2021/08/05 05:36:25;;;;;;;;;8.50;8.00;;;;;;;;4683631;30;46036;-79
2021/08/05 05:38:53;;;;;;;;;9.00;8.00;;;;;;;;4646780;30;45545;-80
2021/08/05 05:45:14;;;;;;;;;8.25;7.50;;;;;;;;4622606;30;45604;-79
2021/08/05 05:47:40;;;;;;;;;9.50;7.75;;;;;;;;4611282;30;53067;-79
2021/08/05 05:50:26;;;;;;;;;9.75;8.00;;;;;;;;4624618;30;46889;-78
2021/08/05 05:52:51;;;;;;;;;8.00;8.00;;;;;;;;4627736;30;45761;-81
2021/08/05 05:55:17;;;;;;;;;11.75;8.00;;;;;;;;4629496;30;45575;-81
2021/08/05 05:57:42;;;;;;;;;8.75;8.50;;;;;;;;4607763;30;48009;-82
2021/08/05 06:00:08;;;;;;;;;12.25;9.50;;;;;;;;4627877;30;45493;-82
2021/08/05 06:02:36;;;;;;;;;10.75;7.00;;;;;;;;4629058;30;45578;-81
2021/08/05 06:07:47;;;;;;;;;8.00;7.75;;;;;;;;4741453;24;45917;-81
2021/08/05 06:13:56;;;;;;;;;11.75;8.00;;;;;;;;4638180;30;45493;-81
2021/08/05 06:16:22;;;;;;;;;7.75;7.75;;;;;;;;4632648;30;45879;-81
2021/08/05 06:21:55;;;;;;;;;14.00;12.00;;;;;;;;4583925;30;45735;-81
2021/08/05 06:24:23;;;;;;;;;14.25;11.75;;;;;;;;4582432;30;45519;-81
2021/08/05 06:27:22;;;;;;;;;9.25;9.25;;;;;;;;4590063;30;45555;-82
2021/08/05 06:30:00;;;;;;;;;10.50;9.75;;;;;;;;4602904;24;47239;-81
2021/08/05 06:32:26;;;;;;;;;10.00;9.25;;;;;;;;4683391;30;45907;-81
2021/08/05 06:34:51;;;;;;;;;11.00;10.00;;;;;;;;4688629;30;45459;-81
2021/08/05 06:37:16;;;;;;;;;10.67;9.00;;;;;;;;4691938;30;45521;-80
2021/08/05 06:39:44;;;;;;;;;10.25;10.25;;;;;;;;4686113;30;47171;-80
2021/08/05 06:42:09;;;;;;;;;12.00;10.00;;;;;;;;4688230;30;45514;-81
2021/08/05 06:44:36;;;;;;;;;10.00;8.75;;;;;;;;4680502;30;45671;-81
2021/08/05 06:47:05;;;;;;;;;10.25;8.75;;;;;;;;4675226;30;45532;-81
2021/08/05 06:49:33;;;;;;;;;11.00;8.50;;;;;;;;4695955;30;45500;-81
2021/08/05 06:51:58;;;;;;;;;13.75;10.75;;;;;;;;4734477;24;45685;-82
2021/08/05 06:54:24;;;;;;;;;15.25;10.00;;;;;;;;4781504;24;47975;-82
2021/08/05 06:56:49;;;;;;;;;13.25;10.75;;;;;;;;4703896;24;45507;-89
2021/08/05 06:59:15;;;;;;;;;10.75;8.00;;;;;;;;4685305;30;45704;-81
2021/08/05 07:01:41;;;;;;;;;13.25;10.75;;;;;;;;4686655;30;45653;-81
2021/08/05 07:04:07;;;;;;;;;11.00;10.50;;;;;;;;4687865;30;45613;-81
2021/08/05 07:09:47;;;;;;;;;11.00;10.00;;;;;;;;4683231;30;46370;-81
2021/08/05 07:12:12;;;;;;;;;18.25;14.75;;;;;;;;4685896;30;46217;-81
2021/08/05 07:14:56;;;;;;;;;14.25;12.00;;;;;;;;4705089;24;45462;-81
2021/08/05 07:17:51;;;;;;;;;14.50;9.00;;;;;;;;4635321;30;45763;-81
2021/08/05 07:20:58;;;;;;;;;10.00;10.00;;;;;;;;4565806;30;46428;-81
2021/08/05 07:23:23;;;;;;;;;12.25;10.25;;;;;;;;4535032;31;45652;-81
2021/08/05 07:25:48;;;;;;;;;11.75;10.50;;;;;;;;4536568;31;45785;-81
2021/08/05 07:28:13;;;;;;;;;13.50;11.75;;;;;;;;4652577;25;45682;-80
2021/08/05 07:30:39;;;;;;;;;10.00;9.00;;;;;;;;4652099;30;46008;-80
2021/08/05 07:33:06;;;;;;;;;13.50;12.00;;;;;;;;4654858;30;45590;-80
2021/08/05 07:35:32;;;;;;;;;10.75;10.00;;;;;;;;4652314;30;45771;-81
2021/08/05 07:37:57;;;;;;;;;11.00;11.00;;;;;;;;4656630;30;45707;-81
2021/08/05 07:40:52;;;;;;;;;14.25;11.50;;;;;;;;4660721;30;45615;-80
2021/08/05 07:46:18;;;;;;;;;11.25;11.25;;;;;;;;3844075;28;45718;-80
2021/08/05 07:48:43;;;;;;;;;12.25;12.00;;;;;;;;4567633;30;45996;-81
2021/08/05 07:51:09;;;;;;;;;12.00;11.00;;;;;;;;4583811;30;46096;-83
2021/08/05 07:53:52;;;;;;;;;13.25;11.75;;;;;;;;4588516;30;45676;-82
2021/08/05 07:56:18;;;;;;;;;11.50;8.75;;;;;;;;4573927;30;45558;-81
2021/08/05 07:59:10;;;;;;;;;12.00;11.00;;;;;;;;4587027;30;45645;-81
2021/08/05 08:01:35;;;;;;;;;16.75;12.00;;;;;;;;4588299;30;46209;-80
2021/08/05 08:09:13;;;;;;;;;16.00;12.00;;;;;;;;4669043;30;47014;-80
2021/08/05 08:11:39;;;;;;;;;12.50;11.75;;;;;;;;4660056;30;48410;-81
2021/08/05 08:14:13;;;;;;;;;15.50;11.25;;;;;;;;4671461;30;49215;-80
2021/08/05 08:19:49;;;;;;;;;16.00;10.00;;;;;;;;4616613;30;45645;-80
2021/08/05 08:25:27;;;;;;;;;14.00;12.25;;;;;;;;4619733;30;49280;-81
2021/08/05 08:28:36;;;;;;;;;14.00;12.25;;;;;;;;4618346;30;45517;-79
2021/08/05 08:30:58;;;;;;;;;17.50;10.50;;;;;;;;4615750;30;46502;-80
2021/08/05 08:33:32;;;;;;;;;11.25;10.50;;;;;;;;4618211;30;48761;-80
2021/08/05 08:35:58;;;;;;;;;17.25;13.25;;;;;;;;4624148;30;45609;-81
2021/08/05 08:39:07;;;;;;;;;11.50;10.00;;;;;;;;4619985;30;45592;-80
2021/08/05 08:44:07;;;;;;;;;12.00;9.50;;;;;;;;2939104;24;46205;-94
2021/08/05 08:46:34;;;;;;;;;11.50;10.00;;;;;;;;4675387;30;45956;-92
2021/08/05 08:49:00;;;;;;;;;7.50;5.25;;;;;;;;4694851;30;45037;-93
2021/08/05 08:51:25;;;;;;;;;16.75;12.50;;;;;;;;4691762;30;45411;-94
2021/08/05 08:58:53;;;;;;;;;11.75;10.00;;;;;;;;4699439;24;45566;-91
2021/08/05 09:01:19;;;;;;;;;11.00;10.50;;;;;;;;4704425;30;44836;-94
2021/08/05 09:03:44;;;;;;;;;11.75;10.00;;;;;;;;4707233;30;45575;-95
2021/08/05 09:06:09;;;;;;;;;9.50;8.75;;;;;;;;4706398;30;45569;-94
2021/08/05 09:11:28;;;;;;;;;9.75;9.75;;;;;;;;4065671;28;46144;-81
2021/08/05 09:13:56;;;;;;;;;12.50;8.25;;;;;;;;4691637;30;45880;-81
2021/08/05 09:24:10;;;;;;;;;12.25;9.75;;;;;;;;4703974;30;45588;-82
2021/08/05 09:29:46;;;;;;;;;12.75;10.25;;;;;;;;4839591;24;45286;-84
2021/08/05 09:32:39;;;;;;;;;9.25;9.25;;;;;;;;4681413;24;45489;-82
2021/08/05 09:35:06;;;;;;;;;10.75;9.00;;;;;;;;4687357;30;46302;-81
2021/08/05 09:37:38;;;;;;;;;8.25;8.25;;;;;;;;4675582;30;46005;-81
2021/08/05 09:40:36;;;;;;;;;11.00;9.50;;;;;;;;4689562;30;45535;-81
2021/08/05 09:43:04;;;;;;;;;10.00;9.00;;;;;;;;4637630;30;45770;-80
2021/08/05 09:45:35;;;;;;;;;10.00;9.25;;;;;;;;4654791;30;46944;-81
2021/08/05 09:48:09;;;;;;;;;9.00;8.00;;;;;;;;4641060;30;45572;-80
2021/08/05 09:51:10;;;;;;;;;13.25;11.75;;;;;;;;4910762;24;47917;-80
2021/08/05 09:53:56;;;;;;;;;10.50;9.75;;;;;;;;4622857;30;45687;-80
2021/08/05 09:56:21;;;;;;;;;10.50;9.00;;;;;;;;4636618;30;45509;-80
2021/08/05 09:58:48;;;;;;;;;11.25;10.25;;;;;;;;4637566;30;45649;-87
2021/08/05 10:01:24;;;;;;;;;12.75;10.50;;;;;;;;4740338;24;45382;-81
2021/08/05 10:03:49;;;;;;;;;13.25;11.25;;;;;;;;4687364;30;45562;-81
2021/08/05 10:06:47;;;;;;;;;9.00;9.00;;;;;;;;4693655;30;46254;-82
2021/08/05 10:09:21;;;;;;;;;10.50;9.00;;;;;;;;4658104;30;45567;-87
2021/08/05 10:12:08;;;;;;;;;10.00;10.00;;;;;;;;4690388;30;45506;-80
2021/08/05 10:14:34;;;;;;;;;12.50;9.25;;;;;;;;4606730;30;46224;-81
2021/08/05 10:17:19;;;;;;;;;12.50;11.75;;;;;;;;4617914;30;46513;-80
2021/08/05 10:19:46;;;;;;;;;12.75;10.00;;;;;;;;4606738;30;45609;-84
2021/08/05 10:22:39;;;;;;;;;13.75;10.50;;;;;;;;4624960;30;45616;-80
2021/08/05 10:25:07;;;;;;;;;11.00;8.50;;;;;;;;4569709;30;45930;-81
2021/08/05 10:27:33;;;;;;;;;8.50;8.00;;;;;;;;4559436;30;46948;-81
2021/08/05 10:29:59;;;;;;;;;8.25;7.25;;;;;;;;4571680;31;45673;-81
2021/08/05 10:33:06;;;;;;;;;9.00;6.25;;;;;;;;4575457;30;47987;-80
2021/08/05 10:35:34;;;;;;;;;8.00;7.00;;;;;;;;4539119;31;46338;-81
2021/08/05 10:38:00;;;;;;;;;8.75;4.00;;;;;;;;4533957;30;45602;-81
2021/08/05 10:40:26;;;;;;;;;5.75;5.75;;;;;;;;4528606;31;46079;-82
2021/08/05 10:42:53;;;;;;;;;5.75;4.00;;;;;;;;4538345;31;45665;-81
2021/08/05 10:45:19;;;;;;;;;4.00;4.00;;;;;;;;4733589;24;46232;-81
2021/08/05 10:48:11;;;;;;;;;4.75;4.75;;;;;;;;4685277;30;48301;-80
2021/08/05 10:50:41;;;;;;;;;5.00;5.00;;;;;;;;4684017;30;45515;-80
2021/08/05 10:53:07;;;;;;;;;4.00;4.00;;;;;;;;4681921;30;46285;-78
2021/08/05 10:55:41;;;;;;;;;6.00;4.00;;;;;;;;4664572;30;46422;-81
2021/08/05 10:58:33;;;;;;;;;5.25;4.00;;;;;;;;4736005;24;48040;-81
2021/08/05 11:01:07;;;;;;;;;4.00;4.00;;;;;;;;4679823;30;45346;-78
2021/08/05 11:03:32;;;;;;;;;5.50;4.75;;;;;;;;4702097;30;46121;-79
2021/08/05 11:06:02;;;;;;;;;3.75;3.75;;;;;;;;4709190;30;45518;-79
2021/08/05 11:08:50;;;;;;;;;4.25;2.75;;;;;;;;4703358;30;45591;-81
2021/08/05 11:11:45;;;;;;;;;4.25;4.25;;;;;;;;4684724;30;45671;-77
2021/08/05 11:14:13;;;;;;;;;7.00;3.00;;;;;;;;4707658;29;45932;-78
2021/08/05 11:16:50;;;;;;;;;4.00;4.00;;;;;;;;4708472;30;45649;-78
2021/08/05 11:19:19;;;;;;;;;6.00;4.75;;;;;;;;4709113;30;46551;-78
2021/08/05 11:22:04;;;;;;;;;;;;;;;;;;;;;
2021/08/05 11:24:47;;;;;;;;;3.25;3.25;;;;;;;;4701740;30;67783;-78
2021/08/05 11:27:13;;;;;;;;;6.00;4.50;;;;;;;;4702652;30;45512;-78
2021/08/05 11:29:56;;;;;;;;;4.33;4.00;;;;;;;;4692115;30;47353;-78
2021/08/05 11:32:21;;;;;;;;;3.25;3.00;;;;;;;;4702919;30;45984;-78
2021/08/05 11:34:56;;;;;;;;;5.50;5.25;;;;;;;;4702953;30;45636;-79
2021/08/05 11:37:22;;;;;;;;;7.00;4.00;;;;;;;;4707285;30;45587;-78
2021/08/05 11:39:49;;;;;;;;;5.25;3.75;;;;;;;;4691908;30;46801;-78
2021/08/05 11:42:49;;;;;;;;;3.75;3.75;;;;;;;;4704697;30;45658;-78
2021/08/05 11:45:40;;;;;;;;;4.00;4.00;;;;;;;;4628757;30;46390;-78
2021/08/05 11:48:05;;;;;;;;;5.75;3.00;;;;;;;;4625631;30;56286;-79
2021/08/05 11:50:36;;;;;;;;;3.00;3.00;;;;;;;;4628665;30;46202;-78
2021/08/05 11:53:10;;;;;;;;;3.75;3.75;;;;;;;;4630196;30;45677;-78
2021/08/05 11:55:40;;;;;;;;;5.25;4.00;;;;;;;;4630403;30;45572;-78
2021/08/05 11:58:17;;;;;;;;;4.00;3.00;;;;;;;;4628162;30;45589;-79
2021/08/05 12:00:46;;;;;;;;;4.00;3.00;;;;;;;;4625829;30;47118;-79
2021/08/05 12:03:16;;;;;;;;;2.50;2.50;;;;;;;;4624813;30;46152;-79
2021/08/05 12:05:59;;;;;;;;;2.50;2.50;;;;;;;;4627137;30;45644;-80
2021/08/05 12:11:42;;;;;;;;;2.00;2.00;;;;;;;;4562683;31;45685;-78
2021/08/05 12:14:12;;;;;;;;;3.00;2.00;;;;;;;;4565182;31;45433;-78
2021/08/05 12:16:42;;;;;;;;;1.25;1.25;;;;;;;;4571241;31;45806;-78
2021/08/05 12:19:35;;;;;;;;;2.25;2.25;;;;;;;;4591327;30;46374;-79
2021/08/05 12:22:12;;;;;;;;;2.00;2.00;;;;;;;;4580246;30;46318;-81
2021/08/05 12:25:28;;;;;;;;;3.75;2.00;;;;;;;;4567712;30;45828;-80
2021/08/05 12:27:57;;;;;;;;;4.00;4.00;;;;;;;;4581095;30;45033;-78
2021/08/05 12:31:08;;;;;;;;;4.00;3.00;;;;;;;;4587082;30;45659;-78
2021/08/05 12:33:36;;;;;;;;;5.50;3.00;;;;;;;;4556463;31;45695;-77
2021/08/05 12:36:08;;;;;;;;;2.00;2.00;;;;;;;;4561906;31;45957;-78
2021/08/05 12:39:10;;;;;;;;;3.00;3.00;;;;;;;;4537328;31;45522;-78
2021/08/05 12:41:35;;;;;;;;;4.00;3.50;;;;;;;;4548004;31;45439;-79
2021/08/05 12:44:05;;;;;;;;;2.00;2.00;;;;;;;;4537246;31;46487;-80
2021/08/05 12:46:31;;;;;;;;;2.75;2.50;;;;;;;;4571390;30;45642;-78
2021/08/05 12:49:06;;;;;;;;;5.00;3.00;;;;;;;;4582492;30;48799;-77
2021/08/05 12:51:37;;;;;;;;;2.25;1.50;;;;;;;;4582833;30;46517;-81
2021/08/05 12:54:17;;;;;;;;;3.00;3.00;;;;;;;;4583013;30;53752;-80
2021/08/05 12:57:31;;;;;;;;;;;;;;;;;;;;;
2021/08/05 13:03:05;;;;;;;;;3.00;2.00;;;;;;;;4614657;30;45590;-80
2021/08/05 13:05:31;;;;;;;;;1.50;1.50;;;;;;;;4608445;30;48086;-80
2021/08/05 13:08:02;;;;;;;;;5.00;3.25;;;;;;;;4628760;30;45581;-79
2021/08/05 13:10:43;;;;;;;;;2.75;2.75;;;;;;;;4701675;30;45944;-84
2021/08/05 13:13:08;;;;;;;;;3.25;2.00;;;;;;;;4669172;30;45544;-83
2021/08/05 13:23:28;;;;;;;;;2.75;2.75;;;;;;;;4063628;24;46230;-93
2021/08/05 13:25:53;;;;;;;;;3.25;3.00;;;;;;;;4721851;30;46082;-96
2021/08/05 13:31:22;;;;;;;;;3.00;3.00;;;;;;;;4083021;27;46675;-80
2021/08/05 13:39:20;;;;;;;;;1.00;1.00;;;;;;;;4709146;30;45525;-80
2021/08/05 13:52:28;;;;;;;;;1.25;1.25;;;;;;;;4082274;24;46192;-78
2021/08/05 13:55:01;;;;;;;;;1.00;1.00;;;;;;;;4686938;30;45604;-78
2021/08/05 13:57:47;;;;;;;;;3.00;2.00;;;;;;;;4679285;24;47464;-77
2021/08/05 14:00:12;;;;;;;;;2.00;2.00;;;;;;;;4653631;30;45627;-78
2021/08/05 14:02:41;;;;;;;;;1.75;1.75;;;;;;;;4659960;30;46494;-78
2021/08/05 14:05:14;;;;;;;;;4.00;2.25;;;;;;;;4652431;30;50973;-77
2021/08/05 14:07:41;;;;;;;;;4.50;2.00;;;;;;;;4656069;30;45555;-78
2021/08/05 14:10:48;;;;;;;;;2.00;2.00;;;;;;;;4656934;30;45675;-78
2021/08/05 14:13:38;;;;;;;;;2.25;2.00;;;;;;;;4585612;30;45652;-77
2021/08/05 14:16:04;;;;;;;;;2.75;2.00;;;;;;;;4551879;31;46046;-77
2021/08/05 14:18:29;;;;;;;;;2.00;2.00;;;;;;;;4565349;30;46269;-78
2021/08/05 14:20:54;;;;;;;;;3.25;2.50;;;;;;;;4569904;30;45652;-79
2021/08/05 14:23:35;;;;;;;;;2.00;2.00;;;;;;;;4570664;30;45672;-82
2021/08/05 14:26:11;;;;;;;;;4.00;2.00;;;;;;;;4567057;31;45617;-77
2021/08/05 14:31:53;;;;;;;;;4.50;1.50;;;;;;;;4517094;31;47599;-79
2021/08/05 14:34:21;;;;;;;;;3.00;2.00;;;;;;;;4522774;31;45624;-77
2021/08/05 14:36:47;;;;;;;;;2.00;2.00;;;;;;;;4517867;31;45720;-78
2021/08/05 14:39:12;;;;;;;;;3.00;1.75;;;;;;;;4520386;31;45711;-78
2021/08/05 14:42:05;;;;;;;;;2.00;2.00;;;;;;;;4519475;31;45600;-79
2021/08/05 14:52:31;;;;;;;;;2.00;2.00;;;;;;;;4677780;30;45574;-78
2021/08/05 14:54:56;;;;;;;;;3.50;2.75;;;;;;;;4606017;30;45626;-78
2021/08/05 14:57:22;;;;;;;;;2.00;2.00;;;;;;;;4609187;30;47963;-79
2021/08/05 14:59:47;;;;;;;;;2.00;2.00;;;;;;;;4589689;30;46908;-78
2021/08/05 15:02:56;;;;;;;;;2.75;1.75;;;;;;;;4605202;30;45747;-78
2021/08/05 15:05:39;;;;;;;;;2.00;2.00;;;;;;;;4552216;31;45839;-78
2021/08/05 15:11:42;;;;;;;;;2.00;2.00;;;;;;;;4492837;31;46206;-78
2021/08/05 15:14:28;;;;;;;;;2.00;2.00;;;;;;;;4489415;31;45568;-77
2021/08/05 15:17:14;;;;;;;;;3.00;2.00;;;;;;;;4491909;31;45592;-77
2021/08/05 15:19:41;;;;;;;;;3.25;3.00;;;;;;;;4499458;31;45440;-77
2021/08/05 15:22:27;;;;;;;;;2.75;2.75;;;;;;;;4666288;25;46863;-77
2021/08/05 15:24:52;;;;;;;;;1.50;1.50;;;;;;;;4713026;24;51752;-78
2021/08/05 15:27:17;;;;;;;;;2.00;2.00;;;;;;;;4683694;30;45761;-78
2021/08/05 15:34:57;;;;;;;;;2.75;2.75;;;;;;;;4670255;30;45720;-80
2021/08/05 15:41:05;;;;;;;;;2.75;2.50;;;;;;;;4610255;30;45603;-78
2021/08/05 15:43:30;;;;;;;;;4.75;2.75;;;;;;;;4602282;30;46488;-77
2021/08/05 15:45:58;;;;;;;;;2.50;2.50;;;;;;;;4588964;30;45610;-77
2021/08/05 15:48:33;;;;;;;;;1.50;1.50;;;;;;;;4595300;30;45620;-78
2021/08/05 15:51:21;;;;;;;;;2.00;2.00;;;;;;;;4603441;30;46499;-79
2021/08/05 15:57:11;;;;;;;;;2.50;2.50;;;;;;;;4349676;28;45698;-77
2021/08/05 15:59:36;;;;;;;;;2.00;2.00;;;;;;;;4685064;30;45609;-78
2021/08/05 16:04:38;;;;;;;;;2.00;2.00;;;;;;;;3115640;28;45982;-81
2021/08/05 16:07:48;;;;;;;;;3.00;2.50;;;;;;;;4671317;30;45625;-79
2021/08/05 16:10:13;;;;;;;;;2.00;2.00;;;;;;;;4744951;24;45601;-78
2021/08/05 16:12:43;;;;;;;;;2.75;2.00;;;;;;;;4685453;30;45602;-80
2021/08/05 16:15:18;;;;;;;;;1.50;0.75;;;;;;;;4692735;30;46646;-82
2021/08/05 16:17:43;;;;;;;;;2.00;2.00;;;;;;;;4690511;30;45518;-78
2021/08/05 16:23:28;;;;;;;;;1.25;1.00;;;;;;;;4625383;30;45784;-79
2021/08/05 16:34:07;;;;;;;;;2.00;2.00;;;;;;;;3021881;28;46001;-78
2021/08/05 16:36:33;;;;;;;;;1.25;1.00;;;;;;;;4642822;30;45639;-79
2021/08/05 16:39:02;;;;;;;;;1.25;1.00;;;;;;;;4652911;30;45385;-81
2021/08/05 16:41:36;;;;;;;;;4.25;2.00;;;;;;;;4643959;30;45883;-82
2021/08/05 16:44:28;;;;;;;;;2.25;1.00;;;;;;;;4646982;30;45484;-78
2021/08/05 16:46:53;;;;;;;;;3.00;3.00;;;;;;;;4602842;30;45615;-80
2021/08/05 16:49:39;;;;;;;;;2.00;2.00;;;;;;;;4606375;30;45652;-79
2021/08/05 16:52:37;;;;;;;;;;;;;;;;;;;;;
2021/08/05 17:01:26;;;;;;;;;2.25;2.25;;;;;;;;4612082;30;45546;-78
2021/08/05 17:03:51;;;;;;;;;1.75;1.75;;;;;;;;4603905;30;48718;-79
2021/08/05 17:06:19;;;;;;;;;2.75;1.50;;;;;;;;4609277;30;45537;-79
2021/08/05 17:08:48;;;;;;;;;2.25;2.00;;;;;;;;4614905;30;46382;-80
2021/08/05 17:11:14;;;;;;;;;2.00;2.00;;;;;;;;4605066;30;46885;-79
2021/08/05 17:13:42;;;;;;;;;1.75;1.75;;;;;;;;4608466;30;46056;-79
2021/08/05 17:16:07;;;;;;;;;2.00;2.00;;;;;;;;4595202;30;45939;-79
2021/08/05 17:18:33;;;;;;;;;1.25;1.25;;;;;;;;4607109;30;46370;-79
2021/08/05 17:20:58;;;;;;;;;2.75;0.50;;;;;;;;4612160;30;45657;-79
2021/08/05 17:23:29;;;;;;;;;2.75;1.25;;;;;;;;4610834;30;45655;-78
2021/08/05 17:26:12;;;;;;;;;3.00;1.00;;;;;;;;4609261;30;45627;-79
2021/08/05 17:29:08;;;;;;;;;1.25;1.00;;;;;;;;4611744;30;47605;-78
2021/08/05 17:31:34;;;;;;;;;2.75;1.75;;;;;;;;4607750;30;46561;-79
2021/08/05 17:34:00;;;;;;;;;2.75;1.75;;;;;;;;4609503;30;45760;-79
2021/08/05 17:36:45;;;;;;;;;1.00;0.75;;;;;;;;4608548;30;45704;-79
2021/08/05 17:39:10;;;;;;;;;1.75;1.75;;;;;;;;4671140;30;48125;-79
2021/08/05 17:44:37;;;;;;;;;1.00;1.00;;;;;;;;4731504;24;45433;-79
2021/08/05 17:47:08;;;;;;;;;1.00;1.00;;;;;;;;4692374;30;45487;-78
2021/08/05 17:49:51;;;;;;;;;2.75;1.75;;;;;;;;4683160;30;48163;-78
2021/08/05 17:52:17;;;;;;;;;1.50;1.00;;;;;;;;4707233;30;45457;-81
2021/08/05 17:57:20;;;;;;;;;1.00;1.00;;;;;;;;3127858;28;46037;-81
2021/08/05 17:59:45;;;;;;;;;4.75;2.00;;;;;;;;4743495;24;47072;-81
2021/08/05 18:02:11;;;;;;;;;2.50;2.00;;;;;;;;4692989;30;46699;-81
2021/08/05 18:04:36;;;;;;;;;3.00;1.75;;;;;;;;4708953;30;45605;-82
2021/08/05 18:07:43;;;;;;;;;2.75;2.75;;;;;;;;4707105;30;45513;-80
2021/08/05 18:10:37;;;;;;;;;;;;;;;;;;;;;
2021/08/05 18:13:03;;;;;;;;;3.00;3.00;;;;;;;;4705367;30;72925;-82
2021/08/05 18:15:28;;;;;;;;;2.75;2.75;;;;;;;;4693839;30;46321;-81